Time;durP1;ratioP1;P1;durP2;ratioP2;P2;SDS_P1;SDS_P2;PMS_P1;PMS_P2;Temp;Humidity;BMP_temperature;BMP_pressure;BME280_temperature;BME280_humidity;BME280_pressure;Samples;Min_cycle;Max_cycle;Signal;HPM_P1;HPM_P2
2023/06/14 00:01:23;;;;;;;;;;;;;;;;;;4999430;28;92201;-72
2023/06/14 00:03:48;;;;;;;;;;;;;;;;;;4996182;28;90285;-73
2023/06/14 00:06:13;;;;;;;;;;;;;;;;;;4998721;28;89018;-72
2023/06/14 00:08:40;;;;;;;;;;;;;;;;;;5015279;28;89231;-72
2023/06/14 00:11:05;;;;;;;;;;;;;;;;;;5001348;28;89327;-73
2023/06/14 00:13:31;;;;;;;;;;;;;;;;;;5001238;28;89537;-72
2023/06/14 00:15:56;;;;;;;;;;;;;;;;;;4998960;28;89790;-73
2023/06/14 00:18:23;;;;;;;;;;;;;;;;;;4997254;28;89514;-73
2023/06/14 00:20:49;;;;;;;;;;;;;;;;;;4996164;28;90887;-73
2023/06/14 00:23:15;;;;;;;;;;;;;;;;;;5000516;28;89183;-72
2023/06/14 00:25:40;;;;;;;;;;;;;;;;;;5001580;28;89101;-73
2023/06/14 00:28:05;;;;;;;;;;;;;;;;;;5018347;28;90828;-72
2023/06/14 00:30:30;;;;;;;;;;;;;;;;;;5000854;28;89660;-73
2023/06/14 00:32:55;;;;;;;;;;;;;;;;;;5000028;28;90630;-73
2023/06/14 00:35:21;;;;;;;;;;;;;;;;;;4999165;28;89494;-72
2023/06/14 00:37:46;;;;;;;;;;;;;;;;;;4998114;28;89646;-73
2023/06/14 00:40:11;;;;;;;;;;;;;;;;;;4998300;28;89750;-72
2023/06/14 00:42:36;;;;;;;;;;;;;;;;;;5001309;28;89171;-72
2023/06/14 00:45:02;;;;;;;;;;;;;;;;;;4993847;28;89118;-73
2023/06/14 00:47:27;;;;;;;;;;;;;;;;;;4999543;28;89654;-73
2023/06/14 00:49:56;;;;;;;;;;;;;;;;;;4997643;28;89770;-73
2023/06/14 00:52:21;;;;;;;;;;;;;;;;;;5003416;28;90771;-73
2023/06/14 00:54:47;;;;;;;;;;;;;;;;;;4998084;28;89054;-73
2023/06/14 00:57:12;;;;;;;;;;;;;;;;;;5004939;28;89032;-73
2023/06/14 00:59:40;;;;;;;;;;;;;;;;;;5001712;28;89495;-72
2023/06/14 01:02:05;;;;;;;;;;;;;;;;;;4993924;28;89202;-73
2023/06/14 01:04:31;;;;;;;;;;;;;;;;;;4999530;28;89392;-73
2023/06/14 01:07:13;;;;;;;;;;;;;;;;;;4997738;28;89543;-73
2023/06/14 01:09:52;;;;;;;;;;;;;;;;;;5000045;28;90395;-72
2023/06/14 01:12:23;;;;;;;;;;;;;;;;;;5004166;28;89158;-73
2023/06/14 01:14:49;;;;;;;;;;;;;;;;;;4997869;28;89003;-72
2023/06/14 01:17:16;;;;;;;;;;;;;;;;;;4995425;28;89256;-73
2023/06/14 01:19:45;;;;;;;;;;;;;;;;;;5003066;28;89686;-73
2023/06/14 01:22:10;;;;;;;;;;;;;;;;;;5001403;28;89926;-72
2023/06/14 01:24:36;;;;;;;;;;;;;;;;;;5000747;28;88989;-73
2023/06/14 01:27:02;;;;;;;;;;;;;;;;;;4996395;28;89823;-72
2023/06/14 01:29:32;;;;;;;;;;;;;;;;;;5001293;28;90178;-72
2023/06/14 01:31:57;;;;;;;;;;;;;;;;;;5000698;28;89591;-72
2023/06/14 01:34:22;;;;;;;;;;;;;;;;;;4994534;28;89522;-73
2023/06/14 01:36:49;;;;;;;;;;;;;;;;;;4992302;28;89403;-73
2023/06/14 01:39:18;;;;;;;;;;;;;;;;;;4997044;28;90065;-73
2023/06/14 01:41:45;;;;;;;;;;;;;;;;;;4998703;28;89726;-72
2023/06/14 01:44:12;;;;;;;;;;;;;;;;;;5000223;28;89141;-73
2023/06/14 01:46:38;;;;;;;;;;;;;;;;;;4996062;28;89717;-72
2023/06/14 01:49:03;;;;;;;;;;;;;;;;;;4993023;28;90263;-72
2023/06/14 01:51:28;;;;;;;;;;;;;;;;;;4998889;28;89162;-72
2023/06/14 01:53:55;;;;;;;;;;;;;;;;;;4993105;28;89496;-73
2023/06/14 01:56:21;;;;;;;;;;;;;;;;;;5002795;28;90210;-73
2023/06/14 01:58:48;;;;;;;;;;;;;;;;;;4996492;28;89347;-74
2023/06/14 02:01:15;;;;;;;;;;;;;;;;;;4996989;28;90868;-73
2023/06/14 02:03:41;;;;;;;;;;;;;;;;;;4995553;28;89904;-72
2023/06/14 02:06:06;;;;;;;;;;;;;;;;;;4995651;28;89435;-72
2023/06/14 02:08:31;;;;;;;;;;;;;;;;;;4997131;28;89910;-73
2023/06/14 02:10:56;;;;;;;;;;;;;;;;;;5003624;28;89106;-72
2023/06/14 02:13:21;;;;;;;;;;;;;;;;;;4995028;28;89572;-72
2023/06/14 02:15:50;;;;;;;;;;;;;;;;;;5000396;28;89639;-72
2023/06/14 02:18:16;;;;;;;;;;;;;;;;;;4996714;28;90812;-72
2023/06/14 02:20:41;;;;;;;;;;;;;;;;;;4996594;28;89072;-73
2023/06/14 02:23:07;;;;;;;;;;;;;;;;;;4999820;28;89640;-73
2023/06/14 02:25:33;;;;;;;;;;;;;;;;;;4999075;28;90671;-71
2023/06/14 02:27:58;;;;;;;;;;;;;;;;;;4997662;28;89621;-72
2023/06/14 02:30:23;;;;;;;;;;;;;;;;;;5001286;28;89050;-72
2023/06/14 02:32:50;;;;;;;;;;;;;;;;;;4990967;28;89838;-72
2023/06/14 02:35:16;;;;;;;;;;;;;;;;;;4992650;28;90305;-72
2023/06/14 02:37:42;;;;;;;;;;;;;;;;;;4997482;28;89168;-72
2023/06/14 02:40:08;;;;;;;;;;;;;;;;;;4990956;28;89434;-73
2023/06/14 02:42:34;;;;;;;;;;;;;;;;;;4998403;28;89121;-72
2023/06/14 02:45:00;;;;;;;;;;;;;;;;;;4998295;28;90157;-72
2023/06/14 02:47:25;;;;;;;;;;;;;;;;;;4995737;28;89430;-72
2023/06/14 02:49:50;;;;;;;;;;;;;;;;;;4996574;28;89159;-72
2023/06/14 02:52:16;;;;;;;;;;;;;;;;;;4997721;28;90470;-71
2023/06/14 02:54:41;;;;;;;;;;;;;;;;;;4993185;28;91349;-73
2023/06/14 02:57:10;;;;;;;;;;;;;;;;;;4995438;28;89671;-73
2023/06/14 02:59:35;;;;;;;;;;;;;;;;;;5003382;28;89647;-73
2023/06/14 03:02:00;;;;;;;;;;;;;;;;;;4995180;28;89593;-72
2023/06/14 03:04:26;;;;;;;;;;;;;;;;;;4997735;28;89513;-73
2023/06/14 03:06:53;;;;;;;;;;;;;;;;;;5002354;28;90073;-73
2023/06/14 03:09:18;;;;;;;;;;;;;;;;;;4997244;28;89606;-72
2023/06/14 03:11:44;;;;;;;;;;;;;;;;;;5003446;28;89524;-71
2023/06/14 03:14:11;;;;;;;;;;;;;;;;;;5003317;28;89180;-73
2023/06/14 03:16:37;;;;;;;;;;;;;;;;;;5000270;28;91821;-73
2023/06/14 03:19:02;;;;;;;;;;;;;;;;;;4996243;28;89534;-73
2023/06/14 03:21:28;;;;;;;;;;;;;;;;;;5008024;28;90415;-73
2023/06/14 03:23:53;;;;;;;;;;;;;;;;;;4999044;28;90405;-72
2023/06/14 03:26:19;;;;;;;;;;;;;;;;;;4994037;28;90136;-73
2023/06/14 03:28:45;;;;;;;;;;;;;;;;;;4996587;28;89049;-73
2023/06/14 03:31:10;;;;;;;;;;;;;;;;;;5001665;28;89310;-72
2023/06/14 03:33:35;;;;;;;;;;;;;;;;;;4997849;28;91550;-73
2023/06/14 03:36:01;;;;;;;;;;;;;;;;;;4995636;28;89192;-72
2023/06/14 03:38:26;;;;;;;;;;;;;;;;;;4995777;28;90125;-72
2023/06/14 03:40:51;;;;;;;;;;;;;;;;;;4999666;28;89772;-73
2023/06/14 03:43:17;;;;;;;;;;;;;;;;;;5005635;28;90251;-71
2023/06/14 03:45:42;;;;;;;;;;;;;;;;;;4998132;28;89291;-73
2023/06/14 03:48:08;;;;;;;;;;;;;;;;;;5002796;28;89098;-72
2023/06/14 03:50:34;;;;;;;;;;;;;;;;;;4995784;28;89456;-72
2023/06/14 03:53:01;;;;;;;;;;;;;;;;;;4996974;28;90274;-72
2023/06/14 03:55:27;;;;;;;;;;;;;;;;;;5001221;28;89422;-72
2023/06/14 03:57:52;;;;;;;;;;;;;;;;;;5000275;28;89907;-73
2023/06/14 04:00:18;;;;;;;;;;;;;;;;;;4997704;28;89598;-72
2023/06/14 04:02:44;;;;;;;;;;;;;;;;;;5003687;28;89543;-73
2023/06/14 04:05:09;;;;;;;;;;;;;;;;;;5000447;28;90630;-72
2023/06/14 04:07:39;;;;;;;;;;;;;;;;;;5006335;28;90502;-73
2023/06/14 04:10:05;;;;;;;;;;;;;;;;;;4996334;28;89680;-72
2023/06/14 04:12:30;;;;;;;;;;;;;;;;;;4999128;28;89528;-72
2023/06/14 04:14:55;;;;;;;;;;;;;;;;;;4999699;28;89639;-72
2023/06/14 04:17:21;;;;;;;;;;;;;;;;;;4998242;28;90943;-72
2023/06/14 04:19:47;;;;;;;;;;;;;;;;;;4995523;28;89354;-73
2023/06/14 04:22:12;;;;;;;;;;;;;;;;;;5004198;28;89773;-73
2023/06/14 04:24:37;;;;;;;;;;;;;;;;;;5004364;28;89958;-72
2023/06/14 04:27:03;;;;;;;;;;;;;;;;;;5000063;28;89150;-73
2023/06/14 04:29:29;;;;;;;;;;;;;;;;;;5007248;28;89686;-72
2023/06/14 04:31:58;;;;;;;;;;;;;;;;;;4998187;28;89562;-72
2023/06/14 04:34:29;;;;;;;;;;;;;;;;;;4993223;27;90834;-73
2023/06/14 04:36:55;;;;;;;;;;;;;;;;;;5000441;28;89859;-72
2023/06/14 04:39:21;;;;;;;;;;;;;;;;;;4995506;28;90486;-73
2023/06/14 04:41:47;;;;;;;;;;;;;;;;;;4993252;28;89381;-73
2023/06/14 04:44:12;;;;;;;;;;;;;;;;;;4992792;28;89526;-72
2023/06/14 04:46:45;;;;;;;;;;;;;;;;;;4999435;28;89227;-72
2023/06/14 04:49:14;;;;;;;;;;;;;;;;;;4994740;28;90630;-73
2023/06/14 04:51:39;;;;;;;;;;;;;;;;;;4995547;28;89070;-73
2023/06/14 04:54:05;;;;;;;;;;;;;;;;;;4999239;28;89656;-73
2023/06/14 04:56:30;;;;;;;;;;;;;;;;;;4996250;28;89050;-73
2023/06/14 04:58:56;;;;;;;;;;;;;;;;;;4993594;28;89295;-73
2023/06/14 05:01:23;;;;;;;;;;;;;;;;;;5009384;28;90479;-73
2023/06/14 05:03:49;;;;;;;;;;;;;;;;;;4996146;28;90517;-73
2023/06/14 05:06:14;;;;;;;;;;;;;;;;;;4991805;28;91138;-72
2023/06/14 05:08:40;;;;;;;;;;;;;;;;;;5003238;28;89047;-73
2023/06/14 05:11:05;;;;;;;;;;;;;;;;;;5002017;28;89259;-74
2023/06/14 05:13:32;;;;;;;;;;;;;;;;;;4998711;28;89587;-73
2023/06/14 05:15:58;;;;;;;;;;;;;;;;;;4994309;28;90761;-72
2023/06/14 05:18:25;;;;;;;;;;;;;;;;;;4992576;28;89861;-73
2023/06/14 05:20:50;;;;;;;;;;;;;;;;;;4997087;28;89547;-72
2023/06/14 05:23:15;;;;;;;;;;;;;;;;;;4991712;28;90256;-73
2023/06/14 05:25:42;;;;;;;;;;;;;;;;;;4991889;28;89203;-72
2023/06/14 05:28:07;;;;;;;;;;;;;;;;;;4998459;28;89911;-72
2023/06/14 05:30:33;;;;;;;;;;;;;;;;;;5000726;28;89783;-73
2023/06/14 05:32:58;;;;;;;;;;;;;;;;;;4997318;28;89467;-73
2023/06/14 05:35:26;;;;;;;;;;;;;;;;;;4999684;28;89557;-72
2023/06/14 05:37:51;;;;;;;;;;;;;;;;;;4994961;28;90534;-73
2023/06/14 05:40:17;;;;;;;;;;;;;;;;;;4991023;28;89659;-73
2023/06/14 05:42:42;;;;;;;;;;;;;;;;;;5000903;28;90615;-72
2023/06/14 05:45:08;;;;;;;;;;;;;;;;;;4994045;28;89667;-73
2023/06/14 05:47:33;;;;;;;;;;;;;;;;;;4996791;28;89633;-72
2023/06/14 05:49:58;;;;;;;;;;;;;;;;;;4991890;28;90685;-73
2023/06/14 05:52:23;;;;;;;;;;;;;;;;;;4995975;28;89118;-74
2023/06/14 05:54:49;;;;;;;;;;;;;;;;;;4991467;28;89361;-73
2023/06/14 05:57:14;;;;;;;;;;;;;;;;;;4998863;28;90259;-73
2023/06/14 05:59:40;;;;;;;;;;;;;;;;;;4998976;28;89502;-73
2023/06/14 06:02:05;;;;;;;;;;;;;;;;;;4994442;28;89654;-72
2023/06/14 06:04:30;;;;;;;;;;;;;;;;;;4992550;28;89205;-75
2023/06/14 06:06:56;;;;;;;;;;;;;;;;;;4991274;28;89615;-74
2023/06/14 06:09:21;;;;;;;;;;;;;;;;;;4993749;28;89682;-72
2023/06/14 06:11:46;;;;;;;;;;;;;;;;;;4996415;28;89108;-73
2023/06/14 06:14:11;;;;;;;;;;;;;;;;;;4993935;28;90861;-72
2023/06/14 06:16:37;;;;;;;;;;;;;;;;;;4990527;28;89703;-72
2023/06/14 06:19:02;;;;;;;;;;;;;;;;;;4996115;28;89411;-72
2023/06/14 06:21:27;;;;;;;;;;;;;;;;;;4993242;28;89575;-72
2023/06/14 06:23:52;;;;;;;;;;;;;;;;;;4991294;28;90089;-72
2023/06/14 06:26:18;;;;;;;;;;;;;;;;;;4994267;28;90753;-72
2023/06/14 06:28:43;;;;;;;;;;;;;;;;;;5001795;28;92240;-73
2023/06/14 06:31:08;;;;;;;;;;;;;;;;;;4994837;28;89493;-72
2023/06/14 06:33:33;;;;;;;;;;;;;;;;;;4994382;28;90626;-72
2023/06/14 06:35:59;;;;;;;;;;;;;;;;;;4991907;28;89778;-73
2023/06/14 06:38:24;;;;;;;;;;;;;;;;;;4992488;28;90665;-73
2023/06/14 06:40:49;;;;;;;;;;;;;;;;;;4990001;28;90474;-72
2023/06/14 06:43:16;;;;;;;;;;;;;;;;;;4990558;28;91889;-72
2023/06/14 06:45:42;;;;;;;;;;;;;;;;;;4996677;28;89132;-72
2023/06/14 06:48:09;;;;;;;;;;;;;;;;;;4993651;28;89614;-73
2023/06/14 06:50:34;;;;;;;;;;;;;;;;;;4987752;28;92426;-72
2023/06/14 06:52:59;;;;;;;;;;;;;;;;;;4996668;28;90453;-70
2023/06/14 06:55:25;;;;;;;;;;;;;;;;;;4996462;28;89661;-70
2023/06/14 06:57:52;;;;;;;;;;;;;;;;;;4991537;28;89781;-77
2023/06/14 07:00:17;;;;;;;;;;;;;;;;;;4993662;28;91159;-75
2023/06/14 07:02:42;;;;;;;;;;;;;;;;;;4991980;28;90356;-75
2023/06/14 07:05:08;;;;;;;;;;;;;;;;;;4995856;28;91699;-76
2023/06/14 07:07:33;;;;;;;;;;;;;;;;;;4994756;28;90922;-75
2023/06/14 07:10:00;;;;;;;;;;;;;;;;;;4992502;28;90164;-73
2023/06/14 07:14:34;;;;;;;;;;;;;;;;;;5048630;27;83173;-74
2023/06/14 07:17:00;;;;;;;;;;;;;;;;;;5044013;27;89527;-74
2023/06/14 07:19:25;;;;;;;;;;;;;;;;;;5044628;27;89206;-74
2023/06/14 07:21:50;;;;;;;;;;;;;;;;;;5045134;27;89241;-74
2023/06/14 07:24:15;;;;;;;;;;;;;;;;;;5042834;27;90151;-74
2023/06/14 07:26:41;;;;;;;;;;;;;;;;;;5041982;27;92754;-74
2023/06/14 07:29:06;;;;;;;;;;;;;;;;;;5045590;27;89613;-75
2023/06/14 07:31:31;;;;;;;;;;;;;;;;;;5044483;27;91936;-74
2023/06/14 07:33:56;;;;;;;;;;;;;;;;;;5046037;27;89232;-74
2023/06/14 07:36:22;;;;;;;;;;;;;;;;;;5040217;27;89529;-74
2023/06/14 07:38:47;;;;;;;;;;;;;;;;;;5042009;27;89227;-74
2023/06/14 07:41:12;;;;;;;;;;;;;;;;;;5044270;27;89116;-76
2023/06/14 07:43:38;;;;;;;;;;;;;;;;;;5044292;27;89959;-77
2023/06/14 07:46:03;;;;;;;;;;;;;;;;;;5044013;27;89761;-77
2023/06/14 07:48:28;;;;;;;;;;;;;;;;;;5041860;27;90935;-72
2023/06/14 07:50:53;;;;;;;;;;;;;;;;;;5041754;27;89668;-75
2023/06/14 07:53:18;;;;;;;;;;;;;;;;;;5044637;27;89413;-74
2023/06/14 07:55:44;;;;;;;;;;;;;;;;;;5047539;27;89074;-73
2023/06/14 07:58:10;;;;;;;;;;;;;;;;;;5043293;27;89263;-74
2023/06/14 08:00:35;;;;;;;;;;;;;;;;;;5041802;27;89987;-74
2023/06/14 08:03:01;;;;;;;;;;;;;;;;;;5039575;27;90659;-74
2023/06/14 08:05:27;;;;;;;;;;;;;;;;;;5042354;27;90100;-74
2023/06/14 08:07:52;;;;;;;;;;;;;;;;;;5043595;27;89051;-74
2023/06/14 08:10:18;;;;;;;;;;;;;;;;;;5042778;27;89784;-74
2023/06/14 08:12:43;;;;;;;;;;;;;;;;;;5042989;27;89641;-75
2023/06/14 08:15:08;;;;;;;;;;;;;;;;;;5042772;27;89432;-74
2023/06/14 08:17:34;;;;;;;;;;;;;;;;;;5043687;27;90065;-73
2023/06/14 08:19:59;;;;;;;;;;;;;;;;;;5043763;27;89166;-74
2023/06/14 08:22:25;;;;;;;;;;;;;;;;;;5043934;27;89856;-73
2023/06/14 08:24:51;;;;;;;;;;;;;;;;;;5036487;27;90303;-74
2023/06/14 08:27:16;;;;;;;;;;;;;;;;;;5030771;27;89517;-74
2023/06/14 08:29:42;;;;;;;;;;;;;;;;;;5032531;27;90613;-75
2023/06/14 08:32:07;;;;;;;;;;;;;;;;;;5030727;27;89420;-74
2023/06/14 08:34:32;;;;;;;;;;;;;;;;;;5030874;27;89152;-75
2023/06/14 08:36:57;;;;;;;;;;;;;;;;;;5030065;27;89553;-75
2023/06/14 08:39:23;;;;;;;;;;;;;;;;;;5033131;27;89397;-74
2023/06/14 08:41:48;;;;;;;;;;;;;;;;;;5029605;27;89564;-75
2023/06/14 09:28:08;;;;;;;;;;;;;;;;;;5063111;27;82869;-72
2023/06/14 09:30:33;;;;;;;;;;;;;;;;;;5042959;27;89401;-72
2023/06/14 09:32:58;;;;;;;;;;;;;;;;;;5043025;27;89771;-74
2023/06/14 09:35:24;;;;;;;;;;;;;;;;;;5047527;27;89311;-74
2023/06/14 09:37:49;;;;;;;;;;;;;;;;;;5043799;27;90660;-74
2023/06/14 09:40:20;;;;;;;;;;;;;;;;;;5043353;27;91973;-74
2023/06/14 09:42:45;;;;;;;;;;;;;;;;;;5049306;27;89691;-74
2023/06/14 09:45:11;;;;;;;;;;;;;;;;;;5042337;27;90434;-74
2023/06/14 09:47:38;;;;;;;;;;;;;;;;;;5042572;27;90735;-74
2023/06/14 09:50:04;;;;;;;;;;;;;;;;;;5045885;27;89480;-75
2023/06/14 09:52:29;;;;;;;;;;;;;;;;;;5040964;27;89799;-74
2023/06/14 09:54:55;;;;;;;;;;;;;;;;;;5046909;27;89798;-74
2023/06/14 09:57:21;;;;;;;;;;;;;;;;;;5044027;27;90568;-74
2023/06/14 09:59:47;;;;;;;;;;;;;;;;;;5036619;27;92695;-76
2023/06/14 10:02:33;;;;;;;;;;;;;;;;;;5046533;27;89728;-74
2023/06/14 10:05:03;;;;;;;;;;;;;;;;;;5044815;27;89608;-72
2023/06/14 10:07:31;;;;;;;;;;;;;;;;;;5047396;27;90309;-74
2023/06/14 10:09:57;;;;;;;;;;;;;;;;;;5043758;27;90267;-73
2023/06/14 10:12:22;;;;;;;;;;;;;;;;;;5044583;27;89642;-73
2023/06/14 10:14:53;;;;;;;;;;;;;;;;;;5048533;27;90220;-74
2023/06/14 10:17:22;;;;;;;;;;;;;;;;;;5043012;27;90556;-73
2023/06/14 10:19:52;;;;;;;;;;;;;;;;;;5042355;27;90007;-74
2023/06/14 10:22:19;;;;;;;;;;;;;;;;;;5044593;27;89865;-73
2023/06/14 10:24:45;;;;;;;;;;;;;;;;;;5044895;27;89593;-73
2023/06/14 10:27:13;;;;;;;;;;;;;;;;;;5046349;27;89749;-73
2023/06/14 10:29:53;;;;;;;;;;;;;;;;;;5051276;27;89678;-71
2023/06/14 10:32:19;;;;;;;;;;;;;;;;;;5046174;27;89795;-74
2023/06/14 10:34:44;;;;;;;;;;;;;;;;;;5046078;27;89901;-70
2023/06/14 10:37:13;;;;;;;;;;;;;;;;;;5044031;27;89584;-72
2023/06/14 10:39:42;;;;;;;;;;;;;;;;;;5032052;27;89793;-72
2023/06/14 10:42:08;;;;;;;;;;;;;;;;;;5031743;27;90029;-72
2023/06/14 10:44:34;;;;;;;;;;;;;;;;;;5029525;27;90867;-71
2023/06/14 10:47:02;;;;;;;;;;;;;;;;;;5025501;27;90787;-71
2023/06/14 10:49:42;;;;;;;;;;;;;;;;;;5026796;27;89690;-71
2023/06/14 10:52:16;;;;;;;;;;;;;;;;;;5030013;27;90808;-72
2023/06/14 10:55:03;;;;;;;;;;;;;;;;;;5018338;27;90261;-74
2023/06/14 10:57:31;;;;;;;;;;;;;;;;;;5024800;27;89703;-73
2023/06/14 10:59:57;;;;;;;;;;;;;;;;;;5033509;27;89734;-72
2023/06/14 11:02:41;;;;;;;;;;;;;;;;;;5020624;27;90319;-72
2023/06/14 11:05:09;;;;;;;;;;;;;;;;;;5033035;27;90539;-71
2023/06/14 11:07:38;;;;;;;;;;;;;;;;;;5023443;27;90195;-72
2023/06/14 11:10:03;;;;;;;;;;;;;;;;;;5025983;27;89420;-72
2023/06/14 11:12:31;;;;;;;;;;;;;;;;;;5023465;27;91062;-72
2023/06/14 11:14:57;;;;;;;;;;;;;;;;;;5028691;27;90911;-70
2023/06/14 11:17:22;;;;;;;;;;;;;;;;;;5036295;27;90786;-72
2023/06/14 11:19:47;;;;;;;;;;;;;;;;;;5032339;27;89959;-73
2023/06/14 11:22:14;;;;;;;;;;;;;;;;;;5029485;27;89578;-72
2023/06/14 11:24:40;;;;;;;;;;;;;;;;;;5034852;27;89418;-72
2023/06/14 11:27:06;;;;;;;;;;;;;;;;;;5027281;27;89384;-72
2023/06/14 11:29:31;;;;;;;;;;;;;;;;;;5031224;27;90479;-71
2023/06/14 11:31:57;;;;;;;;;;;;;;;;;;5030886;27;90031;-72
2023/06/14 11:34:22;;;;;;;;;;;;;;;;;;5031169;27;89275;-72
2023/06/14 11:36:47;;;;;;;;;;;;;;;;;;5027113;27;89298;-72
2023/06/14 11:39:13;;;;;;;;;;;;;;;;;;5029985;27;89914;-72
2023/06/14 11:41:39;;;;;;;;;;;;;;;;;;5026923;27;89497;-71
2023/06/14 11:44:05;;;;;;;;;;;;;;;;;;5034769;27;89549;-73
2023/06/14 11:46:31;;;;;;;;;;;;;;;;;;5029935;27;89229;-73
2023/06/14 11:48:56;;;;;;;;;;;;;;;;;;5026508;27;89182;-71
2023/06/14 11:51:21;;;;;;;;;;;;;;;;;;5025618;27;90225;-73
2023/06/14 11:53:47;;;;;;;;;;;;;;;;;;5030046;27;89643;-71
2023/06/14 11:56:12;;;;;;;;;;;;;;;;;;5026211;27;90148;-72
2023/06/14 11:58:37;;;;;;;;;;;;;;;;;;5029880;27;89666;-73
2023/06/14 12:01:03;;;;;;;;;;;;;;;;;;5022614;27;89688;-72
2023/06/14 12:03:28;;;;;;;;;;;;;;;;;;5028211;27;89742;-72
2023/06/14 12:06:10;;;;;;;;;;;;;;;;;;5026622;27;90088;-72
2023/06/14 12:08:39;;;;;;;;;;;;;;;;;;5033958;27;89544;-73
2023/06/14 12:11:15;;;;;;;;;;;;;;;;;;5034185;27;90783;-72
2023/06/14 12:13:40;;;;;;;;;;;;;;;;;;5028691;27;90254;-71
2023/06/14 12:16:09;;;;;;;;;;;;;;;;;;5027628;27;89582;-72
2023/06/14 12:18:35;;;;;;;;;;;;;;;;;;5033192;27;90489;-71
2023/06/14 12:21:03;;;;;;;;;;;;;;;;;;5042119;27;89644;-73
2023/06/14 12:23:45;;;;;;;;;;;;;;;;;;5029279;27;89631;-71
2023/06/14 12:53:15;;;;;;;;;;;;;;;;;;5060789;27;82818;-73
2023/06/14 12:55:40;;;;;;;;;;;;;;;;;;5037676;27;89001;-71
2023/06/14 12:58:06;;;;;;;;;;;;;;;;;;5038223;27;89091;-72
2023/06/14 13:00:31;;;;;;;;;;;;;;;;;;5043885;27;89879;-72
2023/06/14 13:02:57;;;;;;;;;;;;;;;;;;5043488;27;89504;-72
2023/06/14 13:05:22;;;;;;;;;;;;;;;;;;5039824;27;89599;-72
2023/06/14 13:07:47;;;;;;;;;;;;;;;;;;5043453;27;89076;-72
2023/06/14 13:10:12;;;;;;;;;;;;;;;;;;5043070;27;90855;-72
2023/06/14 13:12:38;;;;;;;;;;;;;;;;;;5046427;27;89674;-72
2023/06/14 13:15:03;;;;;;;;;;;;;;;;;;5042211;27;89637;-72
2023/06/14 13:17:28;;;;;;;;;;;;;;;;;;5042516;27;90691;-72
2023/06/14 13:19:53;;;;;;;;;;;;;;;;;;5042127;27;90138;-71
2023/06/14 13:22:19;;;;;;;;;;;;;;;;;;5044190;27;89587;-72
2023/06/14 13:24:44;;;;;;;;;;;;;;;;;;5041674;27;90099;-72
2023/06/14 13:27:10;;;;;;;;;;;;;;;;;;5043152;27;89736;-72
2023/06/14 13:29:36;;;;;;;;;;;;;;;;;;5042958;27;89710;-72
2023/06/14 13:32:01;;;;;;;;;;;;;;;;;;5046376;27;90007;-76
2023/06/14 13:34:26;;;;;;;;;;;;;;;;;;5042974;27;89162;-74
2023/06/14 13:36:52;;;;;;;;;;;;;;;;;;5043466;27;89281;-71
2023/06/14 13:39:17;;;;;;;;;;;;;;;;;;5043052;27;89220;-71
2023/06/14 13:41:42;;;;;;;;;;;;;;;;;;5043757;27;89483;-71
2023/06/14 13:44:08;;;;;;;;;;;;;;;;;;5040004;27;89252;-71
2023/06/14 13:46:33;;;;;;;;;;;;;;;;;;5040135;27;89537;-71
2023/06/14 13:48:59;;;;;;;;;;;;;;;;;;5043006;27;89620;-71
2023/06/14 13:51:26;;;;;;;;;;;;;;;;;;5041111;27;90989;-72
2023/06/14 13:53:52;;;;;;;;;;;;;;;;;;5037132;27;89576;-71
2023/06/14 13:56:18;;;;;;;;;;;;;;;;;;5045637;27;90418;-74
2023/06/14 13:58:44;;;;;;;;;;;;;;;;;;5040869;27;89658;-75
2023/06/14 14:01:11;;;;;;;;;;;;;;;;;;5042481;27;92162;-70
2023/06/14 14:03:36;;;;;;;;;;;;;;;;;;5030229;27;90381;-72
2023/06/14 14:06:02;;;;;;;;;;;;;;;;;;5027555;27;89973;-72
2023/06/14 14:08:27;;;;;;;;;;;;;;;;;;5024280;27;89031;-72
2023/06/14 14:10:53;;;;;;;;;;;;;;;;;;5026834;27;90582;-71
2023/06/14 14:13:18;;;;;;;;;;;;;;;;;;5027184;27;89239;-72
2023/06/14 14:15:44;;;;;;;;;;;;;;;;;;5027986;27;90707;-72
2023/06/14 14:18:09;;;;;;;;;;;;;;;;;;5030216;27;88996;-71
2023/06/14 14:20:34;;;;;;;;;;;;;;;;;;5025510;27;89880;-71
2023/06/14 14:23:00;;;;;;;;;;;;;;;;;;5028635;27;89199;-72
2023/06/14 14:25:25;;;;;;;;;;;;;;;;;;5024110;27;89084;-71
2023/06/14 14:27:50;;;;;;;;;;;;;;;;;;5027791;27;89561;-71
2023/06/14 14:30:16;;;;;;;;;;;;;;;;;;5026212;27;89577;-72
2023/06/14 14:32:41;;;;;;;;;;;;;;;;;;5027980;27;90339;-72
2023/06/14 14:35:07;;;;;;;;;;;;;;;;;;5028521;27;89939;-71
2023/06/14 14:37:32;;;;;;;;;;;;;;;;;;5025693;27;89740;-71
2023/06/14 14:39:58;;;;;;;;;;;;;;;;;;5028394;27;89147;-72
2023/06/14 14:42:23;;;;;;;;;;;;;;;;;;5027488;27;89750;-72
2023/06/14 14:44:48;;;;;;;;;;;;;;;;;;5028611;27;89088;-72
2023/06/14 14:47:13;;;;;;;;;;;;;;;;;;5022671;27;89482;-71
2023/06/14 14:49:38;;;;;;;;;;;;;;;;;;5028279;27;89466;-72
2023/06/14 14:52:04;;;;;;;;;;;;;;;;;;5026414;27;89649;-72
2023/06/14 14:54:29;;;;;;;;;;;;;;;;;;5027273;27;89474;-73
2023/06/14 14:56:54;;;;;;;;;;;;;;;;;;5027377;27;89442;-73
2023/06/14 14:59:21;;;;;;;;;;;;;;;;;;5028302;27;89491;-71
2023/06/14 15:01:47;;;;;;;;;;;;;;;;;;5026606;27;89442;-71
2023/06/14 15:04:12;;;;;;;;;;;;;;;;;;5025504;27;89586;-73
2023/06/14 15:06:39;;;;;;;;;;;;;;;;;;5028829;27;89621;-72
2023/06/14 15:09:04;;;;;;;;;;;;;;;;;;5024191;27;89610;-72
2023/06/14 15:11:29;;;;;;;;;;;;;;;;;;5027111;27;89765;-70
2023/06/14 15:13:55;;;;;;;;;;;;;;;;;;5028863;27;90500;-72
2023/06/14 15:16:20;;;;;;;;;;;;;;;;;;5025854;27;89210;-71
2023/06/14 15:18:45;;;;;;;;;;;;;;;;;;5023596;27;89139;-71
2023/06/14 15:21:10;;;;;;;;;;;;;;;;;;5030026;27;89475;-71
2023/06/14 15:23:36;;;;;;;;;;;;;;;;;;5024877;27;90057;-71
2023/06/14 15:26:01;;;;;;;;;;;;;;;;;;5027736;27;90458;-73
2023/06/14 15:28:28;;;;;;;;;;;;;;;;;;5025305;27;90192;-72
2023/06/14 15:30:54;;;;;;;;;;;;;;;;;;5026139;27;89670;-73
2023/06/14 15:33:20;;;;;;;;;;;;;;;;;;5027326;27;90800;-73
2023/06/14 15:35:46;;;;;;;;;;;;;;;;;;5027674;27;89173;-72
2023/06/14 15:38:11;;;;;;;;;;;;;;;;;;5028314;27;89058;-73
2023/06/14 15:40:36;;;;;;;;;;;;;;;;;;5025513;27;89522;-72
2023/06/14 15:43:01;;;;;;;;;;;;;;;;;;5031446;27;89832;-71
2023/06/14 15:45:26;;;;;;;;;;;;;;;;;;5028832;27;89717;-73
2023/06/14 15:47:52;;;;;;;;;;;;;;;;;;5025966;27;90207;-72
2023/06/14 15:50:17;;;;;;;;;;;;;;;;;;5028236;27;89480;-74
2023/06/14 15:52:42;;;;;;;;;;;;;;;;;;5027494;27;91520;-71
2023/06/14 15:55:07;;;;;;;;;;;;;;;;;;5025206;27;91132;-72
2023/06/14 15:57:33;;;;;;;;;;;;;;;;;;5025421;27;91153;-72
2023/06/14 15:59:58;;;;;;;;;;;;;;;;;;5028113;27;90763;-73
2023/06/14 16:02:23;;;;;;;;;;;;;;;;;;5025306;27;89306;-73
2023/06/14 16:04:49;;;;;;;;;;;;;;;;;;5030704;27;89562;-74
2023/06/14 16:07:14;;;;;;;;;;;;;;;;;;5027374;27;90583;-74
2023/06/14 16:09:39;;;;;;;;;;;;;;;;;;5025540;27;89607;-73
2023/06/14 16:12:05;;;;;;;;;;;;;;;;;;5025831;27;89858;-74
2023/06/14 16:14:30;;;;;;;;;;;;;;;;;;5027362;27;89223;-73
2023/06/14 16:16:55;;;;;;;;;;;;;;;;;;5024805;27;89150;-72
2023/06/14 16:19:21;;;;;;;;;;;;;;;;;;5026933;27;90134;-72
2023/06/14 16:21:46;;;;;;;;;;;;;;;;;;5028166;27;89690;-74
2023/06/14 16:24:11;;;;;;;;;;;;;;;;;;5028385;27;89505;-73
2023/06/14 16:26:36;;;;;;;;;;;;;;;;;;5030928;27;89160;-74
2023/06/14 16:29:01;;;;;;;;;;;;;;;;;;5027455;27;89082;-74
2023/06/14 16:31:27;;;;;;;;;;;;;;;;;;5023723;27;89660;-74
2023/06/14 16:33:55;;;;;;;;;;;;;;;;;;5024513;27;89184;-74
2023/06/14 16:36:21;;;;;;;;;;;;;;;;;;5025899;27;89994;-73
2023/06/14 16:38:46;;;;;;;;;;;;;;;;;;5026503;27;89241;-74
2023/06/14 16:41:13;;;;;;;;;;;;;;;;;;5025787;27;90227;-74
2023/06/14 16:43:38;;;;;;;;;;;;;;;;;;5027384;27;89995;-73
2023/06/14 16:46:03;;;;;;;;;;;;;;;;;;5024275;27;89610;-72
2023/06/14 16:48:28;;;;;;;;;;;;;;;;;;5028825;27;90305;-72
2023/06/14 16:50:54;;;;;;;;;;;;;;;;;;5017752;27;90722;-74
2023/06/14 16:53:19;;;;;;;;;;;;;;;;;;5021498;27;89302;-73
2023/06/14 16:55:44;;;;;;;;;;;;;;;;;;5023269;27;89395;-78
2023/06/14 16:58:09;;;;;;;;;;;;;;;;;;5026030;27;89559;-72
2023/06/14 17:00:35;;;;;;;;;;;;;;;;;;5024476;27;90265;-73
2023/06/14 17:03:01;;;;;;;;;;;;;;;;;;5023224;27;89442;-74
2023/06/14 17:05:26;;;;;;;;;;;;;;;;;;5025009;27;92768;-75
2023/06/14 17:07:51;;;;;;;;;;;;;;;;;;5028732;27;89659;-77
2023/06/14 17:10:17;;;;;;;;;;;;;;;;;;5023552;27;89600;-73
2023/06/14 17:12:42;;;;;;;;;;;;;;;;;;5026145;27;90300;-74
2023/06/14 17:15:07;;;;;;;;;;;;;;;;;;5026900;27;90280;-72
2023/06/14 17:17:32;;;;;;;;;;;;;;;;;;5024676;27;91405;-73
2023/06/14 17:19:58;;;;;;;;;;;;;;;;;;5021879;27;89962;-72
2023/06/14 17:22:23;;;;;;;;;;;;;;;;;;5022618;27;89626;-73
2023/06/14 17:24:48;;;;;;;;;;;;;;;;;;5025740;27;89829;-71
2023/06/14 17:27:13;;;;;;;;;;;;;;;;;;5018198;27;89400;-74
2023/06/14 17:29:39;;;;;;;;;;;;;;;;;;5028611;27;89232;-73
2023/06/14 17:32:04;;;;;;;;;;;;;;;;;;5022597;27;89503;-72
2023/06/14 17:34:29;;;;;;;;;;;;;;;;;;5023406;27;89506;-72
2023/06/14 17:36:55;;;;;;;;;;;;;;;;;;5025045;27;89691;-72
2023/06/14 17:39:20;;;;;;;;;;;;;;;;;;5028937;27;89292;-72
2023/06/14 17:41:45;;;;;;;;;;;;;;;;;;5026183;27;89038;-72
2023/06/14 17:44:11;;;;;;;;;;;;;;;;;;5026567;27;90033;-76
2023/06/14 17:46:37;;;;;;;;;;;;;;;;;;5026244;27;90180;-73
2023/06/14 17:49:02;;;;;;;;;;;;;;;;;;5030092;27;89196;-75
2023/06/14 17:51:27;;;;;;;;;;;;;;;;;;5032765;27;89208;-73